sensor_id;sensor_type;location;lat;lon;timestamp;P1;durP1;ratioP1;P2;durP2;ratioP2
489;SDS011;231;48.120;11.576;2024-01-30T16:52:48;5.50;;;4.37;;
489;SDS011;231;48.120;11.576;2024-01-30T16:55:14;8.60;;;5.10;;
489;SDS011;231;48.120;11.576;2024-01-30T16:57:42;9.63;;;4.70;;
489;SDS011;231;48.120;11.576;2024-01-30T17:00:09;10.73;;;6.00;;
489;SDS011;231;48.120;11.576;2024-01-30T17:02:36;9.20;;;4.90;;
489;SDS011;231;48.120;11.576;2024-01-30T17:05:03;8.87;;;6.63;;
489;SDS011;231;48.120;11.576;2024-01-30T17:07:31;9.37;;;6.10;;
489;SDS011;231;48.120;11.576;2024-01-30T17:10:01;10.73;;;5.80;;
489;SDS011;231;48.120;11.576;2024-01-30T17:12:29;9.00;;;5.53;;
489;SDS011;231;48.120;11.576;2024-01-30T17:14:56;15.33;;;8.77;;
489;SDS011;231;48.120;11.576;2024-01-30T17:17:23;12.63;;;6.43;;
489;SDS011;231;48.120;11.576;2024-01-30T17:19:50;13.77;;;6.87;;
489;SDS011;231;48.120;11.576;2024-01-30T17:22:17;14.30;;;6.40;;
489;SDS011;231;48.120;11.576;2024-01-30T17:24:45;12.13;;;6.90;;
489;SDS011;231;48.120;11.576;2024-01-30T17:27:14;14.50;;;8.13;;
489;SDS011;231;48.120;11.576;2024-01-30T17:29:41;21.13;;;7.53;;
489;SDS011;231;48.120;11.576;2024-01-30T17:32:07;15.67;;;6.60;;
489;SDS011;231;48.120;11.576;2024-01-30T17:34:34;6.90;;;5.67;;
489;SDS011;231;48.120;11.576;2024-01-30T17:37:01;11.27;;;5.73;;
489;SDS011;231;48.120;11.576;2024-01-30T17:39:30;13.50;;;7.83;;
489;SDS011;231;48.120;11.576;2024-01-30T17:41:57;13.33;;;7.03;;
489;SDS011;231;48.120;11.576;2024-01-30T17:44:25;15.80;;;9.13;;
489;SDS011;231;48.120;11.576;2024-01-30T17:46:52;9.10;;;7.00;;
489;SDS011;231;48.120;11.576;2024-01-30T17:49:20;9.97;;;7.60;;
489;SDS011;231;48.120;11.576;2024-01-30T17:51:47;13.00;;;8.70;;
489;SDS011;231;48.120;11.576;2024-01-30T17:54:14;14.20;;;8.43;;
489;SDS011;231;48.120;11.576;2024-01-30T17:56:40;9.57;;;8.87;;
489;SDS011;231;48.120;11.576;2024-01-30T17:59:07;19.57;;;9.60;;
489;SDS011;231;48.120;11.576;2024-01-30T18:01:35;12.70;;;8.13;;
489;SDS011;231;48.120;11.576;2024-01-30T18:04:02;15.53;;;8.10;;
489;SDS011;231;48.120;11.576;2024-01-30T18:06:29;12.40;;;7.60;;
489;SDS011;231;48.120;11.576;2024-01-30T18:08:56;9.40;;;7.50;;
489;SDS011;231;48.120;11.576;2024-01-30T18:11:23;10.43;;;7.70;;
489;SDS011;231;48.120;11.576;2024-01-30T18:13:49;7.63;;;6.37;;
489;SDS011;231;48.120;11.576;2024-01-30T18:16:18;11.10;;;6.97;;
489;SDS011;231;48.120;11.576;2024-01-30T18:18:48;10.70;;;8.00;;
489;SDS011;231;48.120;11.576;2024-01-30T18:21:15;10.77;;;6.83;;
489;SDS011;231;48.120;11.576;2024-01-30T18:23:41;14.23;;;8.97;;
489;SDS011;231;48.120;11.576;2024-01-30T18:26:08;8.37;;;7.93;;
489;SDS011;231;48.120;11.576;2024-01-30T18:28:35;10.00;;;6.53;;
489;SDS011;231;48.120;11.576;2024-01-30T18:31:03;19.90;;;11.13;;
489;SDS011;231;48.120;11.576;2024-01-30T18:33:30;12.00;;;10.20;;
489;SDS011;231;48.120;11.576;2024-01-30T18:35:58;12.20;;;11.60;;
489;SDS011;231;48.120;11.576;2024-01-30T18:38:25;19.30;;;11.17;;
489;SDS011;231;48.120;11.576;2024-01-30T18:40:52;16.50;;;10.27;;
489;SDS011;231;48.120;11.576;2024-01-30T18:43:19;18.33;;;10.83;;
489;SDS011;231;48.120;11.576;2024-01-30T18:45:50;14.10;;;9.83;;
489;SDS011;231;48.120;11.576;2024-01-30T18:48:18;13.10;;;12.17;;
489;SDS011;231;48.120;11.576;2024-01-30T18:50:45;19.23;;;14.67;;
489;SDS011;231;48.120;11.576;2024-01-30T18:53:14;23.60;;;14.30;;
489;SDS011;231;48.120;11.576;2024-01-30T18:55:41;15.50;;;13.83;;
489;SDS011;231;48.120;11.576;2024-01-30T18:58:07;19.40;;;14.60;;
489;SDS011;231;48.120;11.576;2024-01-30T19:00:34;24.00;;;17.13;;
489;SDS011;231;48.120;11.576;2024-01-30T19:03:04;19.10;;;14.20;;
489;SDS011;231;48.120;11.576;2024-01-30T19:05:31;16.80;;;13.17;;
489;SDS011;231;48.120;11.576;2024-01-30T19:07:58;14.93;;;12.10;;
489;SDS011;231;48.120;11.576;2024-01-30T19:10:26;13.90;;;13.07;;
489;SDS011;231;48.120;11.576;2024-01-30T19:12:53;15.73;;;11.60;;
489;SDS011;231;48.120;11.576;2024-01-30T19:15:20;21.17;;;12.53;;
489;SDS011;231;48.120;11.576;2024-01-30T19:17:52;12.10;;;9.60;;
489;SDS011;231;48.120;11.576;2024-01-30T19:20:20;12.20;;;10.07;;
489;SDS011;231;48.120;11.576;2024-01-30T19:22:48;17.30;;;11.30;;
489;SDS011;231;48.120;11.576;2024-01-30T19:25:15;11.60;;;9.97;;
489;SDS011;231;48.120;11.576;2024-01-30T19:27:43;14.07;;;9.80;;
489;SDS011;231;48.120;11.576;2024-01-30T19:30:10;14.70;;;10.23;;
489;SDS011;231;48.120;11.576;2024-01-30T19:32:38;12.20;;;11.60;;
489;SDS011;231;48.120;11.576;2024-01-30T19:35:05;13.40;;;12.03;;
489;SDS011;231;48.120;11.576;2024-01-30T19:37:32;12.47;;;11.87;;
489;SDS011;231;48.120;11.576;2024-01-30T19:40:00;15.13;;;11.43;;
489;SDS011;231;48.120;11.576;2024-01-30T19:42:27;17.93;;;13.30;;
489;SDS011;231;48.120;11.576;2024-01-30T19:44:56;15.30;;;11.73;;
489;SDS011;231;48.120;11.576;2024-01-30T19:47:22;18.83;;;10.87;;
489;SDS011;231;48.120;11.576;2024-01-30T19:49:50;11.93;;;10.47;;
489;SDS011;231;48.120;11.576;2024-01-30T19:52:17;10.87;;;10.27;;
489;SDS011;231;48.120;11.576;2024-01-30T19:54:44;10.23;;;8.80;;
489;SDS011;231;48.120;11.576;2024-01-30T19:57:11;11.00;;;9.20;;
489;SDS011;231;48.120;11.576;2024-01-30T19:59:38;10.93;;;9.00;;
489;SDS011;231;48.120;11.576;2024-01-30T20:02:06;9.97;;;8.80;;
489;SDS011;231;48.120;11.576;2024-01-30T20:04:33;14.23;;;10.27;;
489;SDS011;231;48.120;11.576;2024-01-30T20:07:00;9.00;;;8.50;;
489;SDS011;231;48.120;11.576;2024-01-30T20:09:27;8.80;;;8.00;;
489;SDS011;231;48.120;11.576;2024-01-30T20:11:56;10.23;;;9.73;;
489;SDS011;231;48.120;11.576;2024-01-30T20:14:24;8.57;;;8.07;;
489;SDS011;231;48.120;11.576;2024-01-30T20:16:51;7.93;;;6.70;;
489;SDS011;231;48.120;11.576;2024-01-30T20:19:19;12.20;;;8.33;;
489;SDS011;231;48.120;11.576;2024-01-30T20:21:46;9.30;;;7.27;;
489;SDS011;231;48.120;11.576;2024-01-30T20:24:13;7.20;;;6.80;;
489;SDS011;231;48.120;11.576;2024-01-30T20:26:40;7.73;;;6.90;;
489;SDS011;231;48.120;11.576;2024-01-30T20:29:07;10.13;;;7.50;;
489;SDS011;231;48.120;11.576;2024-01-30T20:31:34;11.90;;;7.40;;
489;SDS011;231;48.120;11.576;2024-01-30T20:34:01;8.47;;;6.73;;
489;SDS011;231;48.120;11.576;2024-01-30T20:36:32;8.17;;;7.13;;
489;SDS011;231;48.120;11.576;2024-01-30T20:38:59;9.60;;;7.60;;
489;SDS011;231;48.120;11.576;2024-01-30T20:41:26;7.70;;;6.60;;
489;SDS011;231;48.120;11.576;2024-01-30T20:43:53;9.60;;;8.33;;
489;SDS011;231;48.120;11.576;2024-01-30T20:46:20;11.47;;;8.60;;
489;SDS011;231;48.120;11.576;2024-01-30T20:48:46;7.90;;;7.50;;
489;SDS011;231;48.120;11.576;2024-01-30T20:51:13;7.20;;;6.80;;
489;SDS011;231;48.120;11.576;2024-01-30T20:53:42;9.17;;;7.93;;
489;SDS011;231;48.120;11.576;2024-01-30T20:56:10;7.57;;;7.00;;
489;SDS011;231;48.120;11.576;2024-01-30T20:58:37;11.07;;;7.97;;
489;SDS011;231;48.120;11.576;2024-01-30T21:01:04;7.53;;;7.03;;
489;SDS011;231;48.120;11.576;2024-01-30T21:16:30;7.33;;;6.97;;
489;SDS011;231;48.120;11.576;2024-01-30T21:18:57;7.53;;;7.13;;
489;SDS011;231;48.120;11.576;2024-01-30T21:21:23;14.80;;;10.73;;
489;SDS011;231;48.120;11.576;2024-01-30T21:23:51;9.50;;;7.73;;
489;SDS011;231;48.120;11.576;2024-01-30T21:26:18;7.23;;;6.83;;
489;SDS011;231;48.120;11.576;2024-01-30T21:28:45;11.07;;;7.50;;
489;SDS011;231;48.120;11.576;2024-01-30T21:31:12;7.77;;;7.17;;
489;SDS011;231;48.120;11.576;2024-01-30T21:33:42;7.90;;;7.50;;
489;SDS011;231;48.120;11.576;2024-01-30T21:36:09;7.20;;;6.67;;
489;SDS011;231;48.120;11.576;2024-01-30T21:38:35;9.90;;;7.80;;
489;SDS011;231;48.120;11.576;2024-01-30T21:41:02;8.70;;;7.67;;
489;SDS011;231;48.120;11.576;2024-01-30T21:43:31;7.70;;;7.20;;
489;SDS011;231;48.120;11.576;2024-01-30T21:45:58;8.47;;;6.70;;
489;SDS011;231;48.120;11.576;2024-01-30T21:48:25;11.30;;;8.50;;
489;SDS011;231;48.120;11.576;2024-01-30T21:50:53;7.33;;;6.83;;
489;SDS011;231;48.120;11.576;2024-01-30T21:53:20;8.20;;;7.50;;
489;SDS011;231;48.120;11.576;2024-01-30T21:55:47;9.13;;;7.40;;
489;SDS011;231;48.120;11.576;2024-01-30T21:58:16;10.23;;;7.90;;
489;SDS011;231;48.120;11.576;2024-01-30T22:00:43;8.40;;;7.47;;
489;SDS011;231;48.120;11.576;2024-01-30T22:03:10;13.50;;;8.23;;
489;SDS011;231;48.120;11.576;2024-01-30T22:05:37;16.27;;;8.50;;
489;SDS011;231;48.120;11.576;2024-01-30T22:08:05;8.80;;;8.30;;
489;SDS011;231;48.120;11.576;2024-01-30T22:10:32;11.67;;;8.70;;
489;SDS011;231;48.120;11.576;2024-01-30T22:12:59;11.17;;;8.50;;
489;SDS011;231;48.120;11.576;2024-01-30T22:15:26;14.53;;;10.13;;
489;SDS011;231;48.120;11.576;2024-01-30T22:17:54;17.53;;;11.67;;
489;SDS011;231;48.120;11.576;2024-01-30T22:20:21;12.17;;;10.67;;
489;SDS011;231;48.120;11.576;2024-01-30T22:22:47;14.13;;;8.97;;
489;SDS011;231;48.120;11.576;2024-01-30T22:25:18;9.77;;;9.10;;
489;SDS011;231;48.120;11.576;2024-01-30T22:27:45;9.77;;;9.30;;
489;SDS011;231;48.120;11.576;2024-01-30T22:30:12;11.63;;;8.30;;
489;SDS011;231;48.120;11.576;2024-01-30T22:32:41;11.90;;;10.13;;
489;SDS011;231;48.120;11.576;2024-01-30T22:38:16;12.87;;;10.40;;
489;SDS011;231;48.120;11.576;2024-01-30T22:40:44;12.03;;;9.83;;
489;SDS011;231;48.120;11.576;2024-01-30T22:43:16;11.03;;;9.27;;
489;SDS011;231;48.120;11.576;2024-01-30T22:45:46;11.77;;;11.20;;
489;SDS011;231;48.120;11.576;2024-01-30T22:48:17;12.47;;;9.57;;
489;SDS011;231;48.120;11.576;2024-01-30T22:50:45;9.20;;;8.23;;
489;SDS011;231;48.120;11.576;2024-01-30T22:53:12;8.73;;;7.63;;
489;SDS011;231;48.120;11.576;2024-01-30T22:55:39;8.50;;;7.50;;
489;SDS011;231;48.120;11.576;2024-01-30T22:58:10;9.30;;;7.43;;
489;SDS011;231;48.120;11.576;2024-01-30T23:00:40;7.13;;;6.73;;
489;SDS011;231;48.120;11.576;2024-01-30T23:03:07;8.00;;;7.13;;
489;SDS011;231;48.120;11.576;2024-01-30T23:05:34;7.73;;;7.33;;
489;SDS011;231;48.120;11.576;2024-01-30T23:08:01;9.77;;;8.10;;
489;SDS011;231;48.120;11.576;2024-01-30T23:10:28;8.83;;;7.07;;
489;SDS011;231;48.120;11.576;2024-01-30T23:12:55;8.43;;;7.97;;
489;SDS011;231;48.120;11.576;2024-01-30T23:15:26;7.13;;;6.70;;
489;SDS011;231;48.120;11.576;2024-01-30T23:17:57;10.20;;;6.67;;
489;SDS011;231;48.120;11.576;2024-01-30T23:20:31;6.87;;;6.47;;
489;SDS011;231;48.120;11.576;2024-01-30T23:23:00;9.27;;;6.57;;
489;SDS011;231;48.120;11.576;2024-01-30T23:25:27;6.87;;;5.60;;
489;SDS011;231;48.120;11.576;2024-01-30T23:27:56;7.20;;;6.10;;
489;SDS011;231;48.120;11.576;2024-01-30T23:30:28;8.10;;;5.60;;
489;SDS011;231;48.120;11.576;2024-01-30T23:33:00;7.63;;;5.90;;
489;SDS011;231;48.120;11.576;2024-01-30T23:35:37;5.47;;;5.17;;
489;SDS011;231;48.120;11.576;2024-01-30T23:38:14;7.30;;;6.17;;
489;SDS011;231;48.120;11.576;2024-01-30T23:40:49;6.00;;;5.63;;
489;SDS011;231;48.120;11.576;2024-01-30T23:43:19;5.80;;;5.50;;
489;SDS011;231;48.120;11.576;2024-01-30T23:45:56;5.60;;;5.13;;
489;SDS011;231;48.120;11.576;2024-01-30T23:48:23;5.73;;;5.43;;
489;SDS011;231;48.120;11.576;2024-01-30T23:50:53;6.33;;;5.00;;
489;SDS011;231;48.120;11.576;2024-01-30T23:53:24;6.80;;;6.40;;
489;SDS011;231;48.120;11.576;2024-01-30T23:55:51;5.47;;;4.70;;
489;SDS011;231;48.120;11.576;2024-01-30T23:58:23;6.50;;;5.50;;
